sensor_id;sensor_type;location;lat;lon;timestamp;temperature;humidity
31735;DHT22;18313;48.518;9.124;2023-02-15T00:01:52;0.60;99.90
31735;DHT22;18313;48.518;9.124;2023-02-15T00:04:22;0.60;99.90
31735;DHT22;18313;48.518;9.124;2023-02-15T00:06:50;0.50;99.90
31735;DHT22;18313;48.518;9.124;2023-02-15T00:09:17;0.50;99.90
31735;DHT22;18313;48.518;9.124;2023-02-15T00:11:44;0.50;99.90
31735;DHT22;18313;48.518;9.124;2023-02-15T00:14:22;0.50;99.90
31735;DHT22;18313;48.518;9.124;2023-02-15T00:16:51;0.50;99.90
31735;DHT22;18313;48.518;9.124;2023-02-15T00:19:20;0.50;99.90
31735;DHT22;18313;48.518;9.124;2023-02-15T00:21:48;0.50;99.90
31735;DHT22;18313;48.518;9.124;2023-02-15T00:24:17;0.40;99.90
31735;DHT22;18313;48.518;9.124;2023-02-15T00:26:45;0.40;99.90
31735;DHT22;18313;48.518;9.124;2023-02-15T00:29:15;0.40;99.90
31735;DHT22;18313;48.518;9.124;2023-02-15T00:31:42;0.30;99.90
31735;DHT22;18313;48.518;9.124;2023-02-15T00:34:15;0.30;99.90
31735;DHT22;18313;48.518;9.124;2023-02-15T00:36:43;0.30;99.90
31735;DHT22;18313;48.518;9.124;2023-02-15T00:39:11;0.40;99.90
31735;DHT22;18313;48.518;9.124;2023-02-15T00:41:39;0.40;99.90
31735;DHT22;18313;48.518;9.124;2023-02-15T00:44:06;0.40;99.90
31735;DHT22;18313;48.518;9.124;2023-02-15T00:46:33;0.40;99.90
31735;DHT22;18313;48.518;9.124;2023-02-15T00:49:01;0.30;99.90
31735;DHT22;18313;48.518;9.124;2023-02-15T00:51:30;0.20;99.90
31735;DHT22;18313;48.518;9.124;2023-02-15T00:53:57;0.20;99.90
31735;DHT22;18313;48.518;9.124;2023-02-15T00:56:25;0.20;99.90
31735;DHT22;18313;48.518;9.124;2023-02-15T00:58:52;0.20;99.90
31735;DHT22;18313;48.518;9.124;2023-02-15T01:01:20;0.20;99.90
31735;DHT22;18313;48.518;9.124;2023-02-15T01:03:48;0.20;99.90
31735;DHT22;18313;48.518;9.124;2023-02-15T01:06:16;0.20;99.90
31735;DHT22;18313;48.518;9.124;2023-02-15T01:08:45;0.10;99.90
31735;DHT22;18313;48.518;9.124;2023-02-15T01:11:18;0.10;99.90
31735;DHT22;18313;48.518;9.124;2023-02-15T01:13:51;0.20;99.90
31735;DHT22;18313;48.518;9.124;2023-02-15T01:16:19;0.20;99.90
31735;DHT22;18313;48.518;9.124;2023-02-15T01:18:46;0.20;99.90
31735;DHT22;18313;48.518;9.124;2023-02-15T01:21:16;0.30;99.90
31735;DHT22;18313;48.518;9.124;2023-02-15T01:23:44;0.20;99.90
31735;DHT22;18313;48.518;9.124;2023-02-15T01:26:11;0.10;99.90
31735;DHT22;18313;48.518;9.124;2023-02-15T01:28:38;0.10;99.90
31735;DHT22;18313;48.518;9.124;2023-02-15T01:31:08;0.10;99.90
31735;DHT22;18313;48.518;9.124;2023-02-15T01:33:35;0.00;99.90
31735;DHT22;18313;48.518;9.124;2023-02-15T01:36:03;0.10;99.90
31735;DHT22;18313;48.518;9.124;2023-02-15T01:38:30;0.00;99.90
31735;DHT22;18313;48.518;9.124;2023-02-15T01:40:57;0.00;99.90
31735;DHT22;18313;48.518;9.124;2023-02-15T01:43:47;0.00;99.90
31735;DHT22;18313;48.518;9.124;2023-02-15T01:46:17;0.00;99.90
31735;DHT22;18313;48.518;9.124;2023-02-15T01:48:52;0.00;99.90
31735;DHT22;18313;48.518;9.124;2023-02-15T01:51:23;0.00;99.90
31735;DHT22;18313;48.518;9.124;2023-02-15T01:53:56;0.00;99.90
31735;DHT22;18313;48.518;9.124;2023-02-15T01:56:29;0.00;99.90
31735;DHT22;18313;48.518;9.124;2023-02-15T01:58:59;-0.10;99.90
31735;DHT22;18313;48.518;9.124;2023-02-15T02:01:30;-0.10;99.90
31735;DHT22;18313;48.518;9.124;2023-02-15T02:04:17;0.00;99.90
31735;DHT22;18313;48.518;9.124;2023-02-15T02:06:47;0.00;99.90
31735;DHT22;18313;48.518;9.124;2023-02-15T02:09:15;-0.10;99.90
31735;DHT22;18313;48.518;9.124;2023-02-15T02:11:45;-0.10;99.90
31735;DHT22;18313;48.518;9.124;2023-02-15T02:14:12;-0.10;99.90
31735;DHT22;18313;48.518;9.124;2023-02-15T02:16:52;-0.10;99.90
31735;DHT22;18313;48.518;9.124;2023-02-15T02:25:24;-0.30;99.90
31735;DHT22;18313;48.518;9.124;2023-02-15T02:28:25;-0.30;99.90
31735;DHT22;18313;48.518;9.124;2023-02-15T02:36:26;-0.30;99.90
31735;DHT22;18313;48.518;9.124;2023-02-15T02:39:06;-0.30;99.90
31735;DHT22;18313;48.518;9.124;2023-02-15T02:41:42;-0.40;99.90
31735;DHT22;18313;48.518;9.124;2023-02-15T02:44:24;-0.50;99.90
31735;DHT22;18313;48.518;9.124;2023-02-15T02:46:59;-0.50;99.90
31735;DHT22;18313;48.518;9.124;2023-02-15T02:49:40;-0.50;99.90
31735;DHT22;18313;48.518;9.124;2023-02-15T02:55:21;-0.60;99.90
31735;DHT22;18313;48.518;9.124;2023-02-15T02:58:08;-0.60;99.90
31735;DHT22;18313;48.518;9.124;2023-02-15T03:00:47;-0.60;99.90
31735;DHT22;18313;48.518;9.124;2023-02-15T03:05:51;-0.70;99.90
31735;DHT22;18313;48.518;9.124;2023-02-15T03:08:21;-0.80;99.90
31735;DHT22;18313;48.518;9.124;2023-02-15T03:10:55;-0.90;99.90
31735;DHT22;18313;48.518;9.124;2023-02-15T03:13:23;-0.90;99.90
31735;DHT22;18313;48.518;9.124;2023-02-15T03:15:51;-0.90;99.90
31735;DHT22;18313;48.518;9.124;2023-02-15T03:18:46;-0.90;99.90
31735;DHT22;18313;48.518;9.124;2023-02-15T03:21:22;-0.90;99.90
31735;DHT22;18313;48.518;9.124;2023-02-15T03:23:54;-0.90;99.90
31735;DHT22;18313;48.518;9.124;2023-02-15T03:26:23;-0.90;99.90
31735;DHT22;18313;48.518;9.124;2023-02-15T03:28:53;-0.90;99.90
31735;DHT22;18313;48.518;9.124;2023-02-15T03:31:24;-0.90;99.90
31735;DHT22;18313;48.518;9.124;2023-02-15T03:34:03;-0.90;99.90
31735;DHT22;18313;48.518;9.124;2023-02-15T03:36:52;-0.90;99.90
31735;DHT22;18313;48.518;9.124;2023-02-15T03:39:35;-1.00;99.90
31735;DHT22;18313;48.518;9.124;2023-02-15T03:42:23;-1.10;99.90
31735;DHT22;18313;48.518;9.124;2023-02-15T03:45:05;-1.10;99.90
31735;DHT22;18313;48.518;9.124;2023-02-15T03:47:37;-1.10;99.90
31735;DHT22;18313;48.518;9.124;2023-02-15T03:50:18;-1.20;99.90
31735;DHT22;18313;48.518;9.124;2023-02-15T03:53:09;-1.20;99.90
31735;DHT22;18313;48.518;9.124;2023-02-15T03:55:37;-1.20;99.90
31735;DHT22;18313;48.518;9.124;2023-02-15T03:58:04;-1.30;99.90
31735;DHT22;18313;48.518;9.124;2023-02-15T04:00:59;-1.30;99.90
31735;DHT22;18313;48.518;9.124;2023-02-15T04:03:54;-1.30;99.90
31735;DHT22;18313;48.518;9.124;2023-02-15T04:06:24;-1.20;99.90
31735;DHT22;18313;48.518;9.124;2023-02-15T04:08:51;-1.10;99.90
31735;DHT22;18313;48.518;9.124;2023-02-15T04:11:37;-1.10;99.90
31735;DHT22;18313;48.518;9.124;2023-02-15T04:14:04;-1.10;99.90
31735;DHT22;18313;48.518;9.124;2023-02-15T04:16:51;-1.10;99.90
31735;DHT22;18313;48.518;9.124;2023-02-15T04:19:18;-1.10;99.90
31735;DHT22;18313;48.518;9.124;2023-02-15T04:22:04;-1.10;99.90
31735;DHT22;18313;48.518;9.124;2023-02-15T04:24:50;-1.10;99.90
31735;DHT22;18313;48.518;9.124;2023-02-15T04:27:36;-1.10;99.90
31735;DHT22;18313;48.518;9.124;2023-02-15T04:30:05;-1.10;99.90
31735;DHT22;18313;48.518;9.124;2023-02-15T04:32:33;-1.10;99.90
31735;DHT22;18313;48.518;9.124;2023-02-15T04:35:02;-1.20;99.90
31735;DHT22;18313;48.518;9.124;2023-02-15T04:37:29;-1.20;99.90
31735;DHT22;18313;48.518;9.124;2023-02-15T04:39:56;-1.10;99.90
31735;DHT22;18313;48.518;9.124;2023-02-15T04:42:25;-1.10;99.90
31735;DHT22;18313;48.518;9.124;2023-02-15T04:44:53;-1.10;99.90
31735;DHT22;18313;48.518;9.124;2023-02-15T04:47:20;-1.00;99.90
31735;DHT22;18313;48.518;9.124;2023-02-15T04:49:47;-1.00;99.90
31735;DHT22;18313;48.518;9.124;2023-02-15T04:52:15;-1.10;99.90
31735;DHT22;18313;48.518;9.124;2023-02-15T04:54:44;-1.00;99.90
31735;DHT22;18313;48.518;9.124;2023-02-15T04:57:12;-1.10;99.90
31735;DHT22;18313;48.518;9.124;2023-02-15T04:59:39;-1.10;99.90
31735;DHT22;18313;48.518;9.124;2023-02-15T05:02:06;-1.20;99.90
31735;DHT22;18313;48.518;9.124;2023-02-15T05:04:34;-1.20;99.90
31735;DHT22;18313;48.518;9.124;2023-02-15T05:07:01;-1.30;99.90
31735;DHT22;18313;48.518;9.124;2023-02-15T05:09:28;-1.30;99.90
31735;DHT22;18313;48.518;9.124;2023-02-15T05:11:55;-1.30;99.90
31735;DHT22;18313;48.518;9.124;2023-02-15T05:14:22;-1.30;99.90
31735;DHT22;18313;48.518;9.124;2023-02-15T05:16:49;-1.40;99.90
31735;DHT22;18313;48.518;9.124;2023-02-15T05:19:17;-1.40;99.90
31735;DHT22;18313;48.518;9.124;2023-02-15T05:21:44;-1.30;99.90
31735;DHT22;18313;48.518;9.124;2023-02-15T05:24:12;-1.30;99.90
31735;DHT22;18313;48.518;9.124;2023-02-15T05:26:58;-1.30;99.90
31735;DHT22;18313;48.518;9.124;2023-02-15T05:29:44;-1.40;99.90
31735;DHT22;18313;48.518;9.124;2023-02-15T05:32:13;-1.40;99.90
31735;DHT22;18313;48.518;9.124;2023-02-15T05:34:41;-1.50;99.90
31735;DHT22;18313;48.518;9.124;2023-02-15T05:37:08;-1.50;99.90
31735;DHT22;18313;48.518;9.124;2023-02-15T05:39:35;-1.50;99.90
31735;DHT22;18313;48.518;9.124;2023-02-15T05:42:02;-1.50;99.90
31735;DHT22;18313;48.518;9.124;2023-02-15T05:44:30;-1.50;99.90
31735;DHT22;18313;48.518;9.124;2023-02-15T05:46:57;-1.50;99.90
31735;DHT22;18313;48.518;9.124;2023-02-15T05:49:24;-1.50;99.90
31735;DHT22;18313;48.518;9.124;2023-02-15T05:51:51;-1.50;99.90
31735;DHT22;18313;48.518;9.124;2023-02-15T05:54:19;-1.50;99.90
31735;DHT22;18313;48.518;9.124;2023-02-15T05:56:46;-1.50;99.90
31735;DHT22;18313;48.518;9.124;2023-02-15T05:59:13;-1.50;99.90
31735;DHT22;18313;48.518;9.124;2023-02-15T06:01:40;-1.50;99.90
31735;DHT22;18313;48.518;9.124;2023-02-15T06:04:07;-1.60;99.90
31735;DHT22;18313;48.518;9.124;2023-02-15T06:06:35;-1.60;99.90
31735;DHT22;18313;48.518;9.124;2023-02-15T06:09:02;-1.50;99.90
31735;DHT22;18313;48.518;9.124;2023-02-15T06:11:29;-1.50;99.90
31735;DHT22;18313;48.518;9.124;2023-02-15T06:13:56;-1.60;99.90
31735;DHT22;18313;48.518;9.124;2023-02-15T06:16:23;-1.60;99.90
31735;DHT22;18313;48.518;9.124;2023-02-15T06:18:50;-1.60;99.90
31735;DHT22;18313;48.518;9.124;2023-02-15T06:21:19;-1.70;99.90
31735;DHT22;18313;48.518;9.124;2023-02-15T06:23:46;-1.70;99.90
31735;DHT22;18313;48.518;9.124;2023-02-15T06:26:13;-1.70;99.90
31735;DHT22;18313;48.518;9.124;2023-02-15T06:28:41;-1.70;99.90
31735;DHT22;18313;48.518;9.124;2023-02-15T06:31:08;-1.70;99.90
31735;DHT22;18313;48.518;9.124;2023-02-15T06:33:35;-1.70;99.90
31735;DHT22;18313;48.518;9.124;2023-02-15T06:36:02;-1.80;99.90
31735;DHT22;18313;48.518;9.124;2023-02-15T06:38:31;-1.80;99.90
31735;DHT22;18313;48.518;9.124;2023-02-15T06:40:58;-1.80;99.90
31735;DHT22;18313;48.518;9.124;2023-02-15T06:43:25;-1.70;99.90
31735;DHT22;18313;48.518;9.124;2023-02-15T06:45:52;-1.70;99.90
31735;DHT22;18313;48.518;9.124;2023-02-15T06:48:19;-1.70;99.90
31735;DHT22;18313;48.518;9.124;2023-02-15T06:50:46;-1.80;99.90
31735;DHT22;18313;48.518;9.124;2023-02-15T06:53:13;-1.80;99.90
31735;DHT22;18313;48.518;9.124;2023-02-15T06:55:40;-1.80;99.90
31735;DHT22;18313;48.518;9.124;2023-02-15T06:58:07;-1.80;99.90
31735;DHT22;18313;48.518;9.124;2023-02-15T07:00:34;-1.80;99.90
31735;DHT22;18313;48.518;9.124;2023-02-15T07:03:02;-1.80;99.90
31735;DHT22;18313;48.518;9.124;2023-02-15T07:05:33;-1.80;99.90
31735;DHT22;18313;48.518;9.124;2023-02-15T07:08:01;-1.60;99.90
31735;DHT22;18313;48.518;9.124;2023-02-15T07:10:28;-1.60;99.90
31735;DHT22;18313;48.518;9.124;2023-02-15T07:12:55;-1.50;99.90
31735;DHT22;18313;48.518;9.124;2023-02-15T07:15:23;-1.40;99.90
31735;DHT22;18313;48.518;9.124;2023-02-15T07:17:50;-1.30;99.90
31735;DHT22;18313;48.518;9.124;2023-02-15T07:20:22;-1.40;99.90
31735;DHT22;18313;48.518;9.124;2023-02-15T07:22:50;-1.30;99.90
31735;DHT22;18313;48.518;9.124;2023-02-15T07:25:17;-1.30;99.90
31735;DHT22;18313;48.518;9.124;2023-02-15T07:27:45;-1.30;99.90
31735;DHT22;18313;48.518;9.124;2023-02-15T07:30:15;-1.30;99.90
31735;DHT22;18313;48.518;9.124;2023-02-15T07:32:43;-1.30;99.90
31735;DHT22;18313;48.518;9.124;2023-02-15T07:35:32;-1.20;99.90
31735;DHT22;18313;48.518;9.124;2023-02-15T07:37:59;-1.10;99.90
31735;DHT22;18313;48.518;9.124;2023-02-15T07:40:26;-1.00;99.90
31735;DHT22;18313;48.518;9.124;2023-02-15T07:42:57;-0.90;99.90
31735;DHT22;18313;48.518;9.124;2023-02-15T07:45:24;-0.80;99.90
31735;DHT22;18313;48.518;9.124;2023-02-15T07:47:51;-0.80;99.90
31735;DHT22;18313;48.518;9.124;2023-02-15T07:50:19;-0.80;99.90
31735;DHT22;18313;48.518;9.124;2023-02-15T07:52:46;-0.70;99.90
31735;DHT22;18313;48.518;9.124;2023-02-15T07:55:13;-0.70;99.90
31735;DHT22;18313;48.518;9.124;2023-02-15T07:57:44;-0.60;99.90
31735;DHT22;18313;48.518;9.124;2023-02-15T08:00:12;-0.60;99.90
31735;DHT22;18313;48.518;9.124;2023-02-15T08:02:40;-0.50;99.90
31735;DHT22;18313;48.518;9.124;2023-02-15T08:05:08;-0.50;99.90
31735;DHT22;18313;48.518;9.124;2023-02-15T08:07:35;-0.40;99.90
31735;DHT22;18313;48.518;9.124;2023-02-15T08:10:02;-0.40;99.90
31735;DHT22;18313;48.518;9.124;2023-02-15T08:12:29;-0.30;99.90
31735;DHT22;18313;48.518;9.124;2023-02-15T08:14:56;-0.20;99.90
31735;DHT22;18313;48.518;9.124;2023-02-15T08:17:23;-0.10;99.90
31735;DHT22;18313;48.518;9.124;2023-02-15T08:19:50;0.00;99.90
31735;DHT22;18313;48.518;9.124;2023-02-15T08:22:17;0.10;99.90
31735;DHT22;18313;48.518;9.124;2023-02-15T08:24:44;0.30;99.90
31735;DHT22;18313;48.518;9.124;2023-02-15T08:27:11;0.50;99.90
31735;DHT22;18313;48.518;9.124;2023-02-15T08:29:38;0.70;99.90
31735;DHT22;18313;48.518;9.124;2023-02-15T08:32:08;0.90;99.90
31735;DHT22;18313;48.518;9.124;2023-02-15T08:34:39;1.20;99.90
31735;DHT22;18313;48.518;9.124;2023-02-15T08:37:06;1.50;99.90
31735;DHT22;18313;48.518;9.124;2023-02-15T08:39:34;1.80;99.90
31735;DHT22;18313;48.518;9.124;2023-02-15T08:42:02;2.10;99.90
31735;DHT22;18313;48.518;9.124;2023-02-15T08:44:29;2.50;99.90
31735;DHT22;18313;48.518;9.124;2023-02-15T08:46:56;2.70;99.90
31735;DHT22;18313;48.518;9.124;2023-02-15T08:49:29;3.00;99.90
31735;DHT22;18313;48.518;9.124;2023-02-15T08:51:56;3.20;99.90
31735;DHT22;18313;48.518;9.124;2023-02-15T08:54:23;3.40;99.90
31735;DHT22;18313;48.518;9.124;2023-02-15T08:56:51;3.60;99.90
31735;DHT22;18313;48.518;9.124;2023-02-15T08:59:21;3.90;99.90
31735;DHT22;18313;48.518;9.124;2023-02-15T09:01:49;4.10;99.90
31735;DHT22;18313;48.518;9.124;2023-02-15T09:04:18;4.40;99.90
31735;DHT22;18313;48.518;9.124;2023-02-15T09:06:47;4.70;99.90
31735;DHT22;18313;48.518;9.124;2023-02-15T09:09:16;4.80;99.90
31735;DHT22;18313;48.518;9.124;2023-02-15T09:11:46;5.00;99.90
31735;DHT22;18313;48.518;9.124;2023-02-15T09:14:19;5.20;99.90
31735;DHT22;18313;48.518;9.124;2023-02-15T09:16:52;5.60;99.90
31735;DHT22;18313;48.518;9.124;2023-02-15T09:19:21;5.80;99.90
31735;DHT22;18313;48.518;9.124;2023-02-15T09:21:48;6.10;99.90
31735;DHT22;18313;48.518;9.124;2023-02-15T09:24:16;6.30;99.90
31735;DHT22;18313;48.518;9.124;2023-02-15T09:26:45;6.50;99.90
31735;DHT22;18313;48.518;9.124;2023-02-15T09:29:16;6.60;99.90
31735;DHT22;18313;48.518;9.124;2023-02-15T09:31:45;6.70;99.90
31735;DHT22;18313;48.518;9.124;2023-02-15T09:34:14;6.90;99.90
31735;DHT22;18313;48.518;9.124;2023-02-15T09:36:45;6.90;99.90
31735;DHT22;18313;48.518;9.124;2023-02-15T09:39:22;7.00;99.90
31735;DHT22;18313;48.518;9.124;2023-02-15T09:48:03;7.50;99.90
31735;DHT22;18313;48.518;9.124;2023-02-15T09:56:42;8.10;99.80
31735;DHT22;18313;48.518;9.124;2023-02-15T10:04:35;8.40;98.40
31735;DHT22;18313;48.518;9.124;2023-02-15T10:13:15;9.00;98.70
31735;DHT22;18313;48.518;9.124;2023-02-15T10:16:13;9.20;97.40
31735;DHT22;18313;48.518;9.124;2023-02-15T10:21:53;9.60;97.60
31735;DHT22;18313;48.518;9.124;2023-02-15T10:27:21;10.00;96.40
31735;DHT22;18313;48.518;9.124;2023-02-15T10:38:40;9.80;95.20
31735;DHT22;18313;48.518;9.124;2023-02-15T10:41:31;9.40;95.30
31735;DHT22;18313;48.518;9.124;2023-02-15T10:47:18;8.50;96.50
31735;DHT22;18313;48.518;9.124;2023-02-15T10:58:46;9.70;95.30
31735;DHT22;18313;48.518;9.124;2023-02-15T11:01:30;9.90;95.50
31735;DHT22;18313;48.518;9.124;2023-02-15T11:06:59;9.90;95.20
31735;DHT22;18313;48.518;9.124;2023-02-15T11:09:38;9.80;94.90
31735;DHT22;18313;48.518;9.124;2023-02-15T11:12:12;9.70;94.80
31735;DHT22;18313;48.518;9.124;2023-02-15T11:14:48;10.10;95.70
31735;DHT22;18313;48.518;9.124;2023-02-15T11:17:41;10.50;94.20
31735;DHT22;18313;48.518;9.124;2023-02-15T11:20:25;11.00;93.60
31735;DHT22;18313;48.518;9.124;2023-02-15T11:22:54;11.40;93.40
31735;DHT22;18313;48.518;9.124;2023-02-15T11:25:33;11.80;91.90
31735;DHT22;18313;48.518;9.124;2023-02-15T11:28:04;11.60;91.20
31735;DHT22;18313;48.518;9.124;2023-02-15T11:30:43;11.50;92.30
31735;DHT22;18313;48.518;9.124;2023-02-15T11:33:19;11.70;93.20
31735;DHT22;18313;48.518;9.124;2023-02-15T11:35:57;11.90;92.50
31735;DHT22;18313;48.518;9.124;2023-02-15T11:38:28;12.30;91.60
31735;DHT22;18313;48.518;9.124;2023-02-15T11:41:05;12.50;91.50
31735;DHT22;18313;48.518;9.124;2023-02-15T11:46:13;12.50;90.60
31735;DHT22;18313;48.518;9.124;2023-02-15T11:48:42;12.70;90.50
31735;DHT22;18313;48.518;9.124;2023-02-15T11:51:12;12.90;90.90
31735;DHT22;18313;48.518;9.124;2023-02-15T11:53:41;13.20;90.70
31735;DHT22;18313;48.518;9.124;2023-02-15T11:56:21;13.30;91.60
31735;DHT22;18313;48.518;9.124;2023-02-15T11:58:51;13.50;89.60
31735;DHT22;18313;48.518;9.124;2023-02-15T12:07:09;14.00;90.50
31735;DHT22;18313;48.518;9.124;2023-02-15T12:12:24;14.30;89.70
31735;DHT22;18313;48.518;9.124;2023-02-15T12:15:06;14.40;90.20
31735;DHT22;18313;48.518;9.124;2023-02-15T12:18:00;14.60;88.50
31735;DHT22;18313;48.518;9.124;2023-02-15T12:20:33;14.60;89.20
31735;DHT22;18313;48.518;9.124;2023-02-15T12:23:04;14.40;88.40
31735;DHT22;18313;48.518;9.124;2023-02-15T12:25:41;14.30;86.60
31735;DHT22;18313;48.518;9.124;2023-02-15T12:28:38;14.30;87.10
31735;DHT22;18313;48.518;9.124;2023-02-15T12:31:20;14.70;85.80
31735;DHT22;18313;48.518;9.124;2023-02-15T12:33:52;14.90;83.50
31735;DHT22;18313;48.518;9.124;2023-02-15T12:36:43;14.60;84.40
31735;DHT22;18313;48.518;9.124;2023-02-15T12:44:27;14.30;84.50
31735;DHT22;18313;48.518;9.124;2023-02-15T12:47:03;14.70;82.50
31735;DHT22;18313;48.518;9.124;2023-02-15T12:49:33;15.10;81.60
31735;DHT22;18313;48.518;9.124;2023-02-15T12:52:03;15.50;80.50
31735;DHT22;18313;48.518;9.124;2023-02-15T12:54:49;15.60;78.40
31735;DHT22;18313;48.518;9.124;2023-02-15T12:57:31;15.80;79.50
31735;DHT22;18313;48.518;9.124;2023-02-15T13:00:02;15.80;79.20
31735;DHT22;18313;48.518;9.124;2023-02-15T13:02:53;15.80;81.00
31735;DHT22;18313;48.518;9.124;2023-02-15T13:05:41;15.70;78.60
31735;DHT22;18313;48.518;9.124;2023-02-15T13:08:14;15.60;79.10
31735;DHT22;18313;48.518;9.124;2023-02-15T13:13:31;15.90;77.70
31735;DHT22;18313;48.518;9.124;2023-02-15T13:16:02;16.00;78.50
31735;DHT22;18313;48.518;9.124;2023-02-15T13:18:38;16.40;77.00
31735;DHT22;18313;48.518;9.124;2023-02-15T13:21:14;16.60;76.40
31735;DHT22;18313;48.518;9.124;2023-02-15T13:23:49;16.60;76.40
31735;DHT22;18313;48.518;9.124;2023-02-15T13:26:20;16.20;78.90
31735;DHT22;18313;48.518;9.124;2023-02-15T13:28:54;15.80;80.00
31735;DHT22;18313;48.518;9.124;2023-02-15T13:31:28;15.40;80.30
31735;DHT22;18313;48.518;9.124;2023-02-15T13:34:11;15.30;81.50
31735;DHT22;18313;48.518;9.124;2023-02-15T13:36:54;15.00;83.00
31735;DHT22;18313;48.518;9.124;2023-02-15T13:42:45;15.30;84.70
31735;DHT22;18313;48.518;9.124;2023-02-15T13:45:43;15.40;83.50
31735;DHT22;18313;48.518;9.124;2023-02-15T13:48:35;15.50;85.30
31735;DHT22;18313;48.518;9.124;2023-02-15T13:51:45;15.70;84.10
31735;DHT22;18313;48.518;9.124;2023-02-15T13:54:46;15.40;84.10
31735;DHT22;18313;48.518;9.124;2023-02-15T14:00:21;14.80;86.60
31735;DHT22;18313;48.518;9.124;2023-02-15T14:02:59;14.80;87.10
31735;DHT22;18313;48.518;9.124;2023-02-15T14:06:00;14.80;87.50
31735;DHT22;18313;48.518;9.124;2023-02-15T14:19:20;14.80;84.90
31735;DHT22;18313;48.518;9.124;2023-02-15T14:22:00;14.80;84.50
31735;DHT22;18313;48.518;9.124;2023-02-15T14:25:02;14.90;83.20
31735;DHT22;18313;48.518;9.124;2023-02-15T14:30:39;14.90;86.60
31735;DHT22;18313;48.518;9.124;2023-02-15T14:33:31;14.90;86.40
31735;DHT22;18313;48.518;9.124;2023-02-15T14:36:03;14.90;85.80
31735;DHT22;18313;48.518;9.124;2023-02-15T14:38:56;14.80;85.60
31735;DHT22;18313;48.518;9.124;2023-02-15T14:41:37;14.50;85.30
31735;DHT22;18313;48.518;9.124;2023-02-15T14:47:10;14.30;86.70
31735;DHT22;18313;48.518;9.124;2023-02-15T14:49:39;14.60;88.30
31735;DHT22;18313;48.518;9.124;2023-02-15T14:52:08;14.70;85.00
31735;DHT22;18313;48.518;9.124;2023-02-15T15:04:37;14.60;82.80
31735;DHT22;18313;48.518;9.124;2023-02-15T15:09:43;14.40;84.40
31735;DHT22;18313;48.518;9.124;2023-02-15T15:14:50;14.10;83.30
31735;DHT22;18313;48.518;9.124;2023-02-15T15:25:51;14.10;87.50
31735;DHT22;18313;48.518;9.124;2023-02-15T15:31:27;14.60;87.20
31735;DHT22;18313;48.518;9.124;2023-02-15T15:36:46;14.40;84.80
31735;DHT22;18313;48.518;9.124;2023-02-15T15:39:49;14.30;84.30
31735;DHT22;18313;48.518;9.124;2023-02-15T15:50:54;14.00;83.10
31735;DHT22;18313;48.518;9.124;2023-02-15T15:53:26;13.90;82.00
31735;DHT22;18313;48.518;9.124;2023-02-15T15:56:05;13.80;82.60
31735;DHT22;18313;48.518;9.124;2023-02-15T15:58:34;13.90;82.60
31735;DHT22;18313;48.518;9.124;2023-02-15T16:01:08;13.80;81.60
31735;DHT22;18313;48.518;9.124;2023-02-15T16:03:35;13.80;82.30
31735;DHT22;18313;48.518;9.124;2023-02-15T16:06:03;13.80;82.40
31735;DHT22;18313;48.518;9.124;2023-02-15T16:08:36;13.80;81.80
31735;DHT22;18313;48.518;9.124;2023-02-15T16:11:20;13.70;81.80
31735;DHT22;18313;48.518;9.124;2023-02-15T16:13:49;13.50;82.80
31735;DHT22;18313;48.518;9.124;2023-02-15T16:16:22;13.50;83.20
31735;DHT22;18313;48.518;9.124;2023-02-15T16:18:50;13.30;81.80
31735;DHT22;18313;48.518;9.124;2023-02-15T16:21:22;13.20;82.10
31735;DHT22;18313;48.518;9.124;2023-02-15T16:27:19;12.70;82.80
31735;DHT22;18313;48.518;9.124;2023-02-15T16:29:48;12.50;84.50
31735;DHT22;18313;48.518;9.124;2023-02-15T16:35:00;12.20;85.80
31735;DHT22;18313;48.518;9.124;2023-02-15T16:37:34;12.00;84.50
31735;DHT22;18313;48.518;9.124;2023-02-15T16:40:02;11.80;86.30
31735;DHT22;18313;48.518;9.124;2023-02-15T16:42:29;11.80;86.50
31735;DHT22;18313;48.518;9.124;2023-02-15T16:45:03;11.70;85.80
31735;DHT22;18313;48.518;9.124;2023-02-15T16:47:36;11.60;86.40
31735;DHT22;18313;48.518;9.124;2023-02-15T16:50:06;11.50;86.30
31735;DHT22;18313;48.518;9.124;2023-02-15T16:52:34;11.40;86.40
31735;DHT22;18313;48.518;9.124;2023-02-15T16:55:03;11.30;86.70
31735;DHT22;18313;48.518;9.124;2023-02-15T16:57:36;11.20;87.10
31735;DHT22;18313;48.518;9.124;2023-02-15T17:00:07;11.10;87.90
31735;DHT22;18313;48.518;9.124;2023-02-15T17:02:35;10.90;88.30
31735;DHT22;18313;48.518;9.124;2023-02-15T17:05:22;10.90;88.80
31735;DHT22;18313;48.518;9.124;2023-02-15T17:08:12;10.70;89.20
31735;DHT22;18313;48.518;9.124;2023-02-15T17:13:31;10.60;89.90
31735;DHT22;18313;48.518;9.124;2023-02-15T17:18:44;10.60;90.20
31735;DHT22;18313;48.518;9.124;2023-02-15T17:21:19;10.60;90.50
31735;DHT22;18313;48.518;9.124;2023-02-15T17:23:49;10.60;90.70
31735;DHT22;18313;48.518;9.124;2023-02-15T17:26:26;10.50;91.00
31735;DHT22;18313;48.518;9.124;2023-02-15T17:28:56;10.30;91.20
31735;DHT22;18313;48.518;9.124;2023-02-15T17:31:31;10.10;91.50
31735;DHT22;18313;48.518;9.124;2023-02-15T17:34:00;10.00;91.80
31735;DHT22;18313;48.518;9.124;2023-02-15T17:36:31;9.80;92.10
31735;DHT22;18313;48.518;9.124;2023-02-15T17:41:30;9.70;92.40
31735;DHT22;18313;48.518;9.124;2023-02-15T17:43:58;9.70;92.80
31735;DHT22;18313;48.518;9.124;2023-02-15T17:46:25;9.50;93.00
31735;DHT22;18313;48.518;9.124;2023-02-15T17:48:55;9.40;93.10
31735;DHT22;18313;48.518;9.124;2023-02-15T17:51:22;9.40;93.40
31735;DHT22;18313;48.518;9.124;2023-02-15T17:53:50;9.40;93.10
31735;DHT22;18313;48.518;9.124;2023-02-15T17:56:37;9.40;93.20
31735;DHT22;18313;48.518;9.124;2023-02-15T17:59:04;9.20;93.30
31735;DHT22;18313;48.518;9.124;2023-02-15T18:01:38;9.00;93.60
31735;DHT22;18313;48.518;9.124;2023-02-15T18:04:27;8.80;93.80
31735;DHT22;18313;48.518;9.124;2023-02-15T18:07:15;8.80;93.80
31735;DHT22;18313;48.518;9.124;2023-02-15T18:10:05;8.70;94.00
31735;DHT22;18313;48.518;9.124;2023-02-15T18:12:57;8.70;94.30
31735;DHT22;18313;48.518;9.124;2023-02-15T18:15:24;8.80;94.40
31735;DHT22;18313;48.518;9.124;2023-02-15T18:17:51;8.80;94.60
31735;DHT22;18313;48.518;9.124;2023-02-15T18:20:21;8.70;94.90
31735;DHT22;18313;48.518;9.124;2023-02-15T18:22:50;8.70;95.50
31735;DHT22;18313;48.518;9.124;2023-02-15T18:25:19;8.80;95.60
31735;DHT22;18313;48.518;9.124;2023-02-15T18:27:47;8.70;95.70
31735;DHT22;18313;48.518;9.124;2023-02-15T18:30:17;8.50;95.90
31735;DHT22;18313;48.518;9.124;2023-02-15T18:32:47;8.40;96.00
31735;DHT22;18313;48.518;9.124;2023-02-15T18:35:19;8.20;96.20
31735;DHT22;18313;48.518;9.124;2023-02-15T18:37:48;8.20;96.00
31735;DHT22;18313;48.518;9.124;2023-02-15T18:40:20;8.30;95.90
31735;DHT22;18313;48.518;9.124;2023-02-15T18:42:48;8.30;96.10
31735;DHT22;18313;48.518;9.124;2023-02-15T18:45:26;8.30;96.40
31735;DHT22;18313;48.518;9.124;2023-02-15T18:48:01;8.20;96.50
31735;DHT22;18313;48.518;9.124;2023-02-15T18:50:33;7.90;97.00
31735;DHT22;18313;48.518;9.124;2023-02-15T18:53:01;7.70;97.30
31735;DHT22;18313;48.518;9.124;2023-02-15T18:55:29;7.50;98.10